Terminal Aerodrome Forecast
Issued by NWS Cleveland, OH

Home | Current Version | Previous Version | Graphics & Text | Print | Product List | Glossary On
Versions: 1 2 3 4 5 6 7 8 9 10 11 12 13 14 15 16 17 18
000
FTUS41 KCLE 221300 AAA
TAFYNG
TAF AMD
KYNG 221349Z 2214/2312 23012KT P6SM BKN012 OVC025
      TEMPO 2214/2218 26012G20KT 5SM -SHRA SCT015 BKN025
     FM221800 27017G25KT P6SM VCSH SCT020 OVC035
     FM230200 27012KT 5SM -SHSN OVC015=

USA.gov is the U.S. government's official web portal to all federal, state and local government web resources and services.